sensor_id;sensor_type;location;lat;lon;timestamp;temperature;humidity
18147;DHT22;9199;48.832;9.182;2023-04-01T00:01:15;9.40;99.90
18147;DHT22;9199;48.832;9.182;2023-04-01T00:03:42;9.30;99.90
18147;DHT22;9199;48.832;9.182;2023-04-01T00:06:09;9.30;99.90
18147;DHT22;9199;48.832;9.182;2023-04-01T00:08:38;9.30;99.90
18147;DHT22;9199;48.832;9.182;2023-04-01T00:11:05;9.30;99.90
18147;DHT22;9199;48.832;9.182;2023-04-01T00:13:32;9.30;99.90
18147;DHT22;9199;48.832;9.182;2023-04-01T00:15:58;9.30;99.90
18147;DHT22;9199;48.832;9.182;2023-04-01T00:18:28;9.40;99.90
18147;DHT22;9199;48.832;9.182;2023-04-01T00:20:55;9.40;99.90
18147;DHT22;9199;48.832;9.182;2023-04-01T00:23:22;9.50;99.90
18147;DHT22;9199;48.832;9.182;2023-04-01T00:25:48;9.40;99.90
18147;DHT22;9199;48.832;9.182;2023-04-01T00:28:19;9.50;99.90
18147;DHT22;9199;48.832;9.182;2023-04-01T00:30:48;9.50;99.90
18147;DHT22;9199;48.832;9.182;2023-04-01T00:33:15;9.50;99.90
18147;DHT22;9199;48.832;9.182;2023-04-01T00:35:44;9.50;99.90
18147;DHT22;9199;48.832;9.182;2023-04-01T00:38:11;9.50;99.90
18147;DHT22;9199;48.832;9.182;2023-04-01T00:40:40;9.40;99.90
18147;DHT22;9199;48.832;9.182;2023-04-01T00:43:12;9.40;99.90
18147;DHT22;9199;48.832;9.182;2023-04-01T00:45:41;9.40;99.90
18147;DHT22;9199;48.832;9.182;2023-04-01T00:48:11;9.40;99.90
18147;DHT22;9199;48.832;9.182;2023-04-01T00:50:40;9.40;99.90
18147;DHT22;9199;48.832;9.182;2023-04-01T00:53:10;9.50;99.90
18147;DHT22;9199;48.832;9.182;2023-04-01T00:55:41;9.60;99.90
18147;DHT22;9199;48.832;9.182;2023-04-01T00:58:13;9.60;99.90
18147;DHT22;9199;48.832;9.182;2023-04-01T01:00:40;9.60;99.90
18147;DHT22;9199;48.832;9.182;2023-04-01T01:03:08;9.60;99.90
18147;DHT22;9199;48.832;9.182;2023-04-01T01:05:44;9.70;99.90
18147;DHT22;9199;48.832;9.182;2023-04-01T01:08:18;9.70;99.90
18147;DHT22;9199;48.832;9.182;2023-04-01T01:10:49;9.70;99.90
18147;DHT22;9199;48.832;9.182;2023-04-01T01:13:24;9.80;99.90
18147;DHT22;9199;48.832;9.182;2023-04-01T01:15:58;9.80;99.90
18147;DHT22;9199;48.832;9.182;2023-04-01T01:18:32;9.70;99.90
18147;DHT22;9199;48.832;9.182;2023-04-01T01:21:26;9.70;99.90
18147;DHT22;9199;48.832;9.182;2023-04-01T01:24:29;9.70;99.90
18147;DHT22;9199;48.832;9.182;2023-04-01T01:27:02;9.70;99.90
18147;DHT22;9199;48.832;9.182;2023-04-01T01:29:42;9.70;99.90
18147;DHT22;9199;48.832;9.182;2023-04-01T01:32:19;9.60;99.90
18147;DHT22;9199;48.832;9.182;2023-04-01T01:34:55;9.60;99.90
18147;DHT22;9199;48.832;9.182;2023-04-01T01:37:26;9.60;99.90
18147;DHT22;9199;48.832;9.182;2023-04-01T01:39:56;9.60;99.90
18147;DHT22;9199;48.832;9.182;2023-04-01T01:42:25;9.50;99.90
18147;DHT22;9199;48.832;9.182;2023-04-01T01:44:54;9.50;99.90
18147;DHT22;9199;48.832;9.182;2023-04-01T01:47:23;9.50;99.90
18147;DHT22;9199;48.832;9.182;2023-04-01T01:49:55;9.50;99.90
18147;DHT22;9199;48.832;9.182;2023-04-01T01:52:22;9.30;99.90
18147;DHT22;9199;48.832;9.182;2023-04-01T01:54:51;9.20;99.90
18147;DHT22;9199;48.832;9.182;2023-04-01T01:57:21;9.10;99.90
18147;DHT22;9199;48.832;9.182;2023-04-01T01:59:50;9.00;99.90
18147;DHT22;9199;48.832;9.182;2023-04-01T02:02:18;9.00;99.90
18147;DHT22;9199;48.832;9.182;2023-04-01T02:04:45;8.90;99.90
18147;DHT22;9199;48.832;9.182;2023-04-01T02:07:20;8.90;99.90
18147;DHT22;9199;48.832;9.182;2023-04-01T02:09:47;8.80;99.90
18147;DHT22;9199;48.832;9.182;2023-04-01T02:12:19;8.80;99.90
18147;DHT22;9199;48.832;9.182;2023-04-01T02:14:51;8.80;99.90
18147;DHT22;9199;48.832;9.182;2023-04-01T02:17:21;8.80;99.90
18147;DHT22;9199;48.832;9.182;2023-04-01T02:19:50;8.80;99.90
18147;DHT22;9199;48.832;9.182;2023-04-01T02:22:21;8.80;99.90
18147;DHT22;9199;48.832;9.182;2023-04-01T02:24:50;8.80;99.90
18147;DHT22;9199;48.832;9.182;2023-04-01T02:27:20;8.80;99.90
18147;DHT22;9199;48.832;9.182;2023-04-01T02:29:47;8.80;99.90
18147;DHT22;9199;48.832;9.182;2023-04-01T02:32:14;8.70;99.90
18147;DHT22;9199;48.832;9.182;2023-04-01T02:34:43;8.70;99.90
18147;DHT22;9199;48.832;9.182;2023-04-01T02:37:10;8.70;99.90
18147;DHT22;9199;48.832;9.182;2023-04-01T02:39:37;8.70;99.90
18147;DHT22;9199;48.832;9.182;2023-04-01T02:42:05;8.70;99.90
18147;DHT22;9199;48.832;9.182;2023-04-01T02:44:33;8.70;99.90
18147;DHT22;9199;48.832;9.182;2023-04-01T02:47:00;8.70;99.90
18147;DHT22;9199;48.832;9.182;2023-04-01T02:49:26;8.70;99.90
18147;DHT22;9199;48.832;9.182;2023-04-01T02:51:53;8.70;99.90
18147;DHT22;9199;48.832;9.182;2023-04-01T02:54:20;8.70;99.90
18147;DHT22;9199;48.832;9.182;2023-04-01T02:56:47;8.70;99.90
18147;DHT22;9199;48.832;9.182;2023-04-01T02:59:13;8.80;99.90
18147;DHT22;9199;48.832;9.182;2023-04-01T03:01:42;8.70;99.90
18147;DHT22;9199;48.832;9.182;2023-04-01T03:04:08;8.70;99.90
18147;DHT22;9199;48.832;9.182;2023-04-01T03:06:35;8.70;99.90
18147;DHT22;9199;48.832;9.182;2023-04-01T03:09:02;8.70;99.90
18147;DHT22;9199;48.832;9.182;2023-04-01T03:11:29;8.70;99.90
18147;DHT22;9199;48.832;9.182;2023-04-01T03:13:55;8.70;99.90
18147;DHT22;9199;48.832;9.182;2023-04-01T03:16:22;8.70;99.90
18147;DHT22;9199;48.832;9.182;2023-04-01T03:18:50;8.70;99.90
18147;DHT22;9199;48.832;9.182;2023-04-01T03:21:19;8.70;99.90
18147;DHT22;9199;48.832;9.182;2023-04-01T03:23:46;8.80;99.90
18147;DHT22;9199;48.832;9.182;2023-04-01T03:26:14;8.80;99.90
18147;DHT22;9199;48.832;9.182;2023-04-01T03:28:41;8.80;99.90
18147;DHT22;9199;48.832;9.182;2023-04-01T03:31:07;8.80;99.90
18147;DHT22;9199;48.832;9.182;2023-04-01T03:33:34;8.80;99.90
18147;DHT22;9199;48.832;9.182;2023-04-01T03:36:03;8.80;99.90
18147;DHT22;9199;48.832;9.182;2023-04-01T03:38:31;8.80;99.90
18147;DHT22;9199;48.832;9.182;2023-04-01T03:40:58;8.80;99.90
18147;DHT22;9199;48.832;9.182;2023-04-01T03:43:25;8.80;99.90
18147;DHT22;9199;48.832;9.182;2023-04-01T03:45:52;8.80;99.90
18147;DHT22;9199;48.832;9.182;2023-04-01T03:48:19;8.80;99.90
18147;DHT22;9199;48.832;9.182;2023-04-01T03:50:47;8.80;99.90
18147;DHT22;9199;48.832;9.182;2023-04-01T03:53:15;8.80;99.90
18147;DHT22;9199;48.832;9.182;2023-04-01T03:55:41;8.80;99.90
18147;DHT22;9199;48.832;9.182;2023-04-01T03:58:09;8.80;99.90
18147;DHT22;9199;48.832;9.182;2023-04-01T04:00:35;8.80;99.90
18147;DHT22;9199;48.832;9.182;2023-04-01T04:03:02;8.80;99.90
18147;DHT22;9199;48.832;9.182;2023-04-01T04:05:29;8.80;99.90
18147;DHT22;9199;48.832;9.182;2023-04-01T04:07:56;8.80;99.90
18147;DHT22;9199;48.832;9.182;2023-04-01T04:10:24;8.80;99.90
18147;DHT22;9199;48.832;9.182;2023-04-01T04:12:52;8.80;99.90
18147;DHT22;9199;48.832;9.182;2023-04-01T04:15:19;8.80;99.90
18147;DHT22;9199;48.832;9.182;2023-04-01T04:17:46;8.80;99.90
18147;DHT22;9199;48.832;9.182;2023-04-01T04:20:13;8.90;99.90
18147;DHT22;9199;48.832;9.182;2023-04-01T04:22:40;8.90;99.90
18147;DHT22;9199;48.832;9.182;2023-04-01T04:25:07;8.90;99.90
18147;DHT22;9199;48.832;9.182;2023-04-01T04:27:36;9.00;99.90
18147;DHT22;9199;48.832;9.182;2023-04-01T04:30:03;9.00;99.90
18147;DHT22;9199;48.832;9.182;2023-04-01T04:32:30;8.90;99.90
18147;DHT22;9199;48.832;9.182;2023-04-01T04:34:57;8.90;99.90
18147;DHT22;9199;48.832;9.182;2023-04-01T04:37:23;8.90;99.90
18147;DHT22;9199;48.832;9.182;2023-04-01T04:39:51;8.90;99.90
18147;DHT22;9199;48.832;9.182;2023-04-01T04:42:17;8.80;99.90
18147;DHT22;9199;48.832;9.182;2023-04-01T04:44:45;8.80;99.90
18147;DHT22;9199;48.832;9.182;2023-04-01T04:47:12;8.80;99.90
18147;DHT22;9199;48.832;9.182;2023-04-01T04:49:39;8.70;99.90
18147;DHT22;9199;48.832;9.182;2023-04-01T04:52:06;8.70;99.90
18147;DHT22;9199;48.832;9.182;2023-04-01T04:54:32;8.70;99.90
18147;DHT22;9199;48.832;9.182;2023-04-01T04:56:59;8.70;99.90
18147;DHT22;9199;48.832;9.182;2023-04-01T04:59:25;8.60;99.90
18147;DHT22;9199;48.832;9.182;2023-04-01T05:01:53;8.70;99.90
18147;DHT22;9199;48.832;9.182;2023-04-01T05:04:20;8.70;99.90
18147;DHT22;9199;48.832;9.182;2023-04-01T05:06:47;8.60;99.90
18147;DHT22;9199;48.832;9.182;2023-04-01T05:09:14;8.60;99.90
18147;DHT22;9199;48.832;9.182;2023-04-01T05:11:41;8.60;99.90
18147;DHT22;9199;48.832;9.182;2023-04-01T05:14:12;8.60;99.90
18147;DHT22;9199;48.832;9.182;2023-04-01T05:16:39;8.60;99.90
18147;DHT22;9199;48.832;9.182;2023-04-01T05:19:07;8.70;99.90
18147;DHT22;9199;48.832;9.182;2023-04-01T05:21:33;8.90;99.90
18147;DHT22;9199;48.832;9.182;2023-04-01T05:24:00;9.20;99.90
18147;DHT22;9199;48.832;9.182;2023-04-01T05:26:27;9.20;99.90
18147;DHT22;9199;48.832;9.182;2023-04-01T05:28:53;9.10;99.90
18147;DHT22;9199;48.832;9.182;2023-04-01T05:31:20;9.00;99.90
18147;DHT22;9199;48.832;9.182;2023-04-01T05:33:49;8.90;99.90
18147;DHT22;9199;48.832;9.182;2023-04-01T05:36:17;8.80;99.90
18147;DHT22;9199;48.832;9.182;2023-04-01T05:38:44;8.90;99.90
18147;DHT22;9199;48.832;9.182;2023-04-01T05:41:12;8.90;99.90
18147;DHT22;9199;48.832;9.182;2023-04-01T05:43:40;8.90;99.90
18147;DHT22;9199;48.832;9.182;2023-04-01T05:46:07;9.00;99.90
18147;DHT22;9199;48.832;9.182;2023-04-01T05:48:34;9.00;99.90
18147;DHT22;9199;48.832;9.182;2023-04-01T05:51:01;9.00;99.90
18147;DHT22;9199;48.832;9.182;2023-04-01T05:53:29;9.10;99.90
18147;DHT22;9199;48.832;9.182;2023-04-01T05:55:56;9.10;99.90
18147;DHT22;9199;48.832;9.182;2023-04-01T05:58:23;9.30;99.90
18147;DHT22;9199;48.832;9.182;2023-04-01T06:00:50;9.40;99.90
18147;DHT22;9199;48.832;9.182;2023-04-01T06:03:16;9.50;99.90
18147;DHT22;9199;48.832;9.182;2023-04-01T06:05:44;9.50;99.90
18147;DHT22;9199;48.832;9.182;2023-04-01T06:08:12;9.70;99.90
18147;DHT22;9199;48.832;9.182;2023-04-01T06:10:52;9.80;99.90
18147;DHT22;9199;48.832;9.182;2023-04-01T06:13:30;9.90;99.90
18147;DHT22;9199;48.832;9.182;2023-04-01T06:16:08;10.00;99.90
18147;DHT22;9199;48.832;9.182;2023-04-01T06:18:48;10.10;99.90
18147;DHT22;9199;48.832;9.182;2023-04-01T06:21:48;10.20;99.90
18147;DHT22;9199;48.832;9.182;2023-04-01T06:24:27;10.20;99.90
18147;DHT22;9199;48.832;9.182;2023-04-01T06:27:02;10.30;99.90
18147;DHT22;9199;48.832;9.182;2023-04-01T06:29:47;10.30;99.90
18147;DHT22;9199;48.832;9.182;2023-04-01T06:32:38;10.40;99.90
18147;DHT22;9199;48.832;9.182;2023-04-01T06:35:55;10.60;99.90
18147;DHT22;9199;48.832;9.182;2023-04-01T06:38:42;10.70;99.90
18147;DHT22;9199;48.832;9.182;2023-04-01T06:44:20;10.80;99.90
18147;DHT22;9199;48.832;9.182;2023-04-01T06:46:55;10.80;99.90
18147;DHT22;9199;48.832;9.182;2023-04-01T06:49:44;10.80;99.90
18147;DHT22;9199;48.832;9.182;2023-04-01T06:52:21;10.70;99.90
18147;DHT22;9199;48.832;9.182;2023-04-01T06:54:52;10.60;99.90
18147;DHT22;9199;48.832;9.182;2023-04-01T06:57:24;10.60;99.90
18147;DHT22;9199;48.832;9.182;2023-04-01T06:59:57;10.70;99.90
18147;DHT22;9199;48.832;9.182;2023-04-01T07:02:30;10.70;99.90
18147;DHT22;9199;48.832;9.182;2023-04-01T07:05:02;10.60;99.90
18147;DHT22;9199;48.832;9.182;2023-04-01T07:07:34;10.60;99.90
18147;DHT22;9199;48.832;9.182;2023-04-01T07:10:05;10.70;99.90
18147;DHT22;9199;48.832;9.182;2023-04-01T07:12:43;10.80;99.90
18147;DHT22;9199;48.832;9.182;2023-04-01T07:15:18;10.90;99.90
18147;DHT22;9199;48.832;9.182;2023-04-01T07:17:47;10.90;99.90
18147;DHT22;9199;48.832;9.182;2023-04-01T07:20:18;10.90;99.90
18147;DHT22;9199;48.832;9.182;2023-04-01T07:22:48;10.80;99.90
18147;DHT22;9199;48.832;9.182;2023-04-01T07:25:17;10.80;99.90
18147;DHT22;9199;48.832;9.182;2023-04-01T07:27:46;10.80;99.90
18147;DHT22;9199;48.832;9.182;2023-04-01T07:30:17;10.80;99.90
18147;DHT22;9199;48.832;9.182;2023-04-01T07:32:47;10.70;99.90
18147;DHT22;9199;48.832;9.182;2023-04-01T07:35:23;10.70;99.90
18147;DHT22;9199;48.832;9.182;2023-04-01T07:38:07;10.70;99.90
18147;DHT22;9199;48.832;9.182;2023-04-01T07:40:42;10.60;99.90
18147;DHT22;9199;48.832;9.182;2023-04-01T07:43:35;10.60;99.90
18147;DHT22;9199;48.832;9.182;2023-04-01T07:46:13;10.60;99.90
18147;DHT22;9199;48.832;9.182;2023-04-01T07:48:49;10.60;99.90
18147;DHT22;9199;48.832;9.182;2023-04-01T07:51:23;10.60;99.90
18147;DHT22;9199;48.832;9.182;2023-04-01T07:54:01;10.60;99.90
18147;DHT22;9199;48.832;9.182;2023-04-01T07:56:36;10.70;99.90
18147;DHT22;9199;48.832;9.182;2023-04-01T07:59:09;10.80;99.90
18147;DHT22;9199;48.832;9.182;2023-04-01T08:01:46;11.00;99.90
18147;DHT22;9199;48.832;9.182;2023-04-01T08:04:25;11.00;99.90
18147;DHT22;9199;48.832;9.182;2023-04-01T08:06:59;11.10;99.90
18147;DHT22;9199;48.832;9.182;2023-04-01T08:09:35;11.10;99.90
18147;DHT22;9199;48.832;9.182;2023-04-01T08:12:13;11.20;99.90
18147;DHT22;9199;48.832;9.182;2023-04-01T08:14:52;11.20;99.90
18147;DHT22;9199;48.832;9.182;2023-04-01T08:17:28;11.20;99.90
18147;DHT22;9199;48.832;9.182;2023-04-01T08:20:09;11.20;99.90
18147;DHT22;9199;48.832;9.182;2023-04-01T08:22:42;11.40;99.90
18147;DHT22;9199;48.832;9.182;2023-04-01T08:25:16;11.60;99.90
18147;DHT22;9199;48.832;9.182;2023-04-01T08:27:45;11.70;99.90
18147;DHT22;9199;48.832;9.182;2023-04-01T08:30:19;11.60;99.90
18147;DHT22;9199;48.832;9.182;2023-04-01T08:32:50;11.50;99.90
18147;DHT22;9199;48.832;9.182;2023-04-01T08:35:26;11.40;99.90
18147;DHT22;9199;48.832;9.182;2023-04-01T08:37:55;11.40;99.90
18147;DHT22;9199;48.832;9.182;2023-04-01T08:40:39;11.40;99.90
18147;DHT22;9199;48.832;9.182;2023-04-01T08:43:12;11.20;99.90
18147;DHT22;9199;48.832;9.182;2023-04-01T08:45:56;10.90;99.90
18147;DHT22;9199;48.832;9.182;2023-04-01T08:51:27;10.40;99.90
18147;DHT22;9199;48.832;9.182;2023-04-01T08:54:27;10.20;99.90
18147;DHT22;9199;48.832;9.182;2023-04-01T08:57:06;10.00;99.90
18147;DHT22;9199;48.832;9.182;2023-04-01T08:59:57;9.90;99.90
18147;DHT22;9199;48.832;9.182;2023-04-01T09:02:51;9.80;99.90
18147;DHT22;9199;48.832;9.182;2023-04-01T09:05:35;9.70;99.90
18147;DHT22;9199;48.832;9.182;2023-04-01T09:08:12;9.60;99.90
18147;DHT22;9199;48.832;9.182;2023-04-01T09:10:59;9.60;99.90
18147;DHT22;9199;48.832;9.182;2023-04-01T09:14:02;9.70;99.90
18147;DHT22;9199;48.832;9.182;2023-04-01T09:17:04;9.90;99.90
18147;DHT22;9199;48.832;9.182;2023-04-01T09:19:50;10.00;99.90
18147;DHT22;9199;48.832;9.182;2023-04-01T09:22:28;10.10;99.90
18147;DHT22;9199;48.832;9.182;2023-04-01T09:25:22;10.20;99.90
18147;DHT22;9199;48.832;9.182;2023-04-01T09:27:56;10.30;99.90
18147;DHT22;9199;48.832;9.182;2023-04-01T09:30:41;10.50;99.90
18147;DHT22;9199;48.832;9.182;2023-04-01T09:36:16;11.10;99.90
18147;DHT22;9199;48.832;9.182;2023-04-01T09:38:55;11.20;99.90
18147;DHT22;9199;48.832;9.182;2023-04-01T09:41:29;11.20;99.90
18147;DHT22;9199;48.832;9.182;2023-04-01T09:44:03;11.30;99.90
18147;DHT22;9199;48.832;9.182;2023-04-01T09:46:48;11.30;99.90
18147;DHT22;9199;48.832;9.182;2023-04-01T09:49:34;11.20;99.90
18147;DHT22;9199;48.832;9.182;2023-04-01T09:52:15;11.00;99.90
18147;DHT22;9199;48.832;9.182;2023-04-01T09:54:58;10.90;99.90
18147;DHT22;9199;48.832;9.182;2023-04-01T09:58:07;10.80;99.90
18147;DHT22;9199;48.832;9.182;2023-04-01T10:00:55;10.90;99.90
18147;DHT22;9199;48.832;9.182;2023-04-01T10:06:57;11.20;99.90
18147;DHT22;9199;48.832;9.182;2023-04-01T10:09:55;11.20;99.90
18147;DHT22;9199;48.832;9.182;2023-04-01T10:15:56;11.30;99.90
18147;DHT22;9199;48.832;9.182;2023-04-01T10:22:06;11.50;99.90
18147;DHT22;9199;48.832;9.182;2023-04-01T10:28:22;12.10;99.90
18147;DHT22;9199;48.832;9.182;2023-04-01T10:31:26;12.30;99.90
18147;DHT22;9199;48.832;9.182;2023-04-01T10:34:18;12.20;99.90
18147;DHT22;9199;48.832;9.182;2023-04-01T10:36:55;12.10;99.90
18147;DHT22;9199;48.832;9.182;2023-04-01T10:40:04;12.00;99.90
18147;DHT22;9199;48.832;9.182;2023-04-01T10:43:13;11.60;99.90
18147;DHT22;9199;48.832;9.182;2023-04-01T10:49:25;11.20;99.90
18147;DHT22;9199;48.832;9.182;2023-04-01T10:52:22;11.30;99.90
18147;DHT22;9199;48.832;9.182;2023-04-01T10:55:06;11.30;99.90
18147;DHT22;9199;48.832;9.182;2023-04-01T10:57:58;11.40;99.90
18147;DHT22;9199;48.832;9.182;2023-04-01T11:00:50;11.50;99.90
18147;DHT22;9199;48.832;9.182;2023-04-01T11:06:52;11.60;99.90
18147;DHT22;9199;48.832;9.182;2023-04-01T11:18:52;12.10;99.90
18147;DHT22;9199;48.832;9.182;2023-04-01T11:24:46;12.70;99.90
18147;DHT22;9199;48.832;9.182;2023-04-01T11:27:28;12.70;99.90
18147;DHT22;9199;48.832;9.182;2023-04-01T11:30:14;12.80;99.90
18147;DHT22;9199;48.832;9.182;2023-04-01T11:32:50;13.00;99.90
18147;DHT22;9199;48.832;9.182;2023-04-01T11:35:55;12.80;99.90
18147;DHT22;9199;48.832;9.182;2023-04-01T11:38:35;12.80;99.90
18147;DHT22;9199;48.832;9.182;2023-04-01T11:41:18;13.00;99.90
18147;DHT22;9199;48.832;9.182;2023-04-01T11:43:56;13.40;99.90
18147;DHT22;9199;48.832;9.182;2023-04-01T11:46:36;13.70;99.90
18147;DHT22;9199;48.832;9.182;2023-04-01T11:49:12;13.70;99.90
18147;DHT22;9199;48.832;9.182;2023-04-01T11:51:52;13.70;99.90
18147;DHT22;9199;48.832;9.182;2023-04-01T11:54:32;13.80;99.90
18147;DHT22;9199;48.832;9.182;2023-04-01T11:57:12;13.80;99.90
18147;DHT22;9199;48.832;9.182;2023-04-01T12:00:19;13.80;99.90
18147;DHT22;9199;48.832;9.182;2023-04-01T12:03:01;13.60;99.90
18147;DHT22;9199;48.832;9.182;2023-04-01T12:05:38;13.10;99.90
18147;DHT22;9199;48.832;9.182;2023-04-01T12:08:19;13.00;99.90
18147;DHT22;9199;48.832;9.182;2023-04-01T12:10:54;13.00;99.90
18147;DHT22;9199;48.832;9.182;2023-04-01T12:13:30;12.80;99.90
18147;DHT22;9199;48.832;9.182;2023-04-01T12:16:16;12.70;99.90
18147;DHT22;9199;48.832;9.182;2023-04-01T12:18:52;12.80;99.90
18147;DHT22;9199;48.832;9.182;2023-04-01T12:21:25;12.70;99.90
18147;DHT22;9199;48.832;9.182;2023-04-01T12:24:25;12.70;99.90
18147;DHT22;9199;48.832;9.182;2023-04-01T12:32:49;12.50;99.90
18147;DHT22;9199;48.832;9.182;2023-04-01T12:35:23;12.60;99.90
18147;DHT22;9199;48.832;9.182;2023-04-01T12:37:59;12.60;99.90
18147;DHT22;9199;48.832;9.182;2023-04-01T12:43:43;12.90;99.90
18147;DHT22;9199;48.832;9.182;2023-04-01T12:46:16;13.10;99.90
18147;DHT22;9199;48.832;9.182;2023-04-01T12:49:22;13.10;99.90
18147;DHT22;9199;48.832;9.182;2023-04-01T12:52:10;13.00;99.90
18147;DHT22;9199;48.832;9.182;2023-04-01T13:04:39;12.90;99.90
18147;DHT22;9199;48.832;9.182;2023-04-01T13:07:25;12.80;99.90
18147;DHT22;9199;48.832;9.182;2023-04-01T13:10:01;12.90;99.90
18147;DHT22;9199;48.832;9.182;2023-04-01T13:12:44;12.90;99.90
18147;DHT22;9199;48.832;9.182;2023-04-01T13:15:22;12.80;99.90
18147;DHT22;9199;48.832;9.182;2023-04-01T13:17:53;12.80;99.90
18147;DHT22;9199;48.832;9.182;2023-04-01T13:20:35;12.70;99.90
18147;DHT22;9199;48.832;9.182;2023-04-01T13:23:17;12.70;99.90
18147;DHT22;9199;48.832;9.182;2023-04-01T13:25:47;12.70;99.90
18147;DHT22;9199;48.832;9.182;2023-04-01T13:28:19;12.60;99.90
18147;DHT22;9199;48.832;9.182;2023-04-01T13:30:52;12.70;99.90
18147;DHT22;9199;48.832;9.182;2023-04-01T13:33:27;13.00;99.90
18147;DHT22;9199;48.832;9.182;2023-04-01T13:36:07;13.30;99.90
18147;DHT22;9199;48.832;9.182;2023-04-01T13:38:50;13.40;99.90
18147;DHT22;9199;48.832;9.182;2023-04-01T13:41:32;13.40;99.90
18147;DHT22;9199;48.832;9.182;2023-04-01T13:44:11;13.30;99.90
18147;DHT22;9199;48.832;9.182;2023-04-01T13:49:57;13.20;99.90
18147;DHT22;9199;48.832;9.182;2023-04-01T13:52:41;13.20;99.90
18147;DHT22;9199;48.832;9.182;2023-04-01T13:55:33;13.10;99.90
18147;DHT22;9199;48.832;9.182;2023-04-01T13:58:25;13.20;99.90
18147;DHT22;9199;48.832;9.182;2023-04-01T14:00:59;13.10;99.90
18147;DHT22;9199;48.832;9.182;2023-04-01T14:03:32;13.00;99.90
18147;DHT22;9199;48.832;9.182;2023-04-01T14:06:28;13.00;99.90
18147;DHT22;9199;48.832;9.182;2023-04-01T14:09:13;12.90;99.90
18147;DHT22;9199;48.832;9.182;2023-04-01T14:11:49;12.80;99.90
18147;DHT22;9199;48.832;9.182;2023-04-01T14:14:24;13.00;99.90
18147;DHT22;9199;48.832;9.182;2023-04-01T14:17:07;13.00;99.90
18147;DHT22;9199;48.832;9.182;2023-04-01T14:19:50;13.00;99.90
18147;DHT22;9199;48.832;9.182;2023-04-01T14:22:27;12.90;99.90
18147;DHT22;9199;48.832;9.182;2023-04-01T14:25:17;12.90;99.90
18147;DHT22;9199;48.832;9.182;2023-04-01T14:27:56;12.70;99.90
18147;DHT22;9199;48.832;9.182;2023-04-01T14:30:35;12.60;99.90
18147;DHT22;9199;48.832;9.182;2023-04-01T14:33:15;12.40;99.90
18147;DHT22;9199;48.832;9.182;2023-04-01T14:35:50;12.10;99.90
18147;DHT22;9199;48.832;9.182;2023-04-01T14:38:27;11.90;99.90
18147;DHT22;9199;48.832;9.182;2023-04-01T14:40:56;11.70;99.90
18147;DHT22;9199;48.832;9.182;2023-04-01T14:43:48;11.60;99.90
18147;DHT22;9199;48.832;9.182;2023-04-01T14:46:47;11.60;99.90
18147;DHT22;9199;48.832;9.182;2023-04-01T14:49:21;11.60;99.90
18147;DHT22;9199;48.832;9.182;2023-04-01T14:51:49;11.50;99.90
18147;DHT22;9199;48.832;9.182;2023-04-01T14:54:20;11.60;99.90
18147;DHT22;9199;48.832;9.182;2023-04-01T14:56:50;11.60;99.90
18147;DHT22;9199;48.832;9.182;2023-04-01T14:59:28;11.70;99.90
18147;DHT22;9199;48.832;9.182;2023-04-01T15:01:59;11.70;99.90
18147;DHT22;9199;48.832;9.182;2023-04-01T15:04:56;11.80;99.90
18147;DHT22;9199;48.832;9.182;2023-04-01T15:10:43;12.20;99.90
18147;DHT22;9199;48.832;9.182;2023-04-01T15:13:15;12.30;99.90
18147;DHT22;9199;48.832;9.182;2023-04-01T15:16:00;12.30;99.90
18147;DHT22;9199;48.832;9.182;2023-04-01T15:18:38;12.40;99.90
18147;DHT22;9199;48.832;9.182;2023-04-01T15:21:26;12.50;99.90
18147;DHT22;9199;48.832;9.182;2023-04-01T15:24:03;12.50;99.90
18147;DHT22;9199;48.832;9.182;2023-04-01T15:26:51;12.40;99.90
18147;DHT22;9199;48.832;9.182;2023-04-01T15:29:41;12.40;99.90
18147;DHT22;9199;48.832;9.182;2023-04-01T15:32:17;12.50;99.90
18147;DHT22;9199;48.832;9.182;2023-04-01T15:34:50;12.60;99.90
18147;DHT22;9199;48.832;9.182;2023-04-01T15:37:26;12.50;99.90
18147;DHT22;9199;48.832;9.182;2023-04-01T15:39:59;12.50;99.90
18147;DHT22;9199;48.832;9.182;2023-04-01T15:42:38;12.50;99.90
18147;DHT22;9199;48.832;9.182;2023-04-01T15:45:16;12.50;99.90
18147;DHT22;9199;48.832;9.182;2023-04-01T15:47:54;12.50;99.90
18147;DHT22;9199;48.832;9.182;2023-04-01T15:50:46;12.30;99.90
18147;DHT22;9199;48.832;9.182;2023-04-01T15:53:24;12.20;99.90
18147;DHT22;9199;48.832;9.182;2023-04-01T15:55:57;12.20;99.90
18147;DHT22;9199;48.832;9.182;2023-04-01T15:58:38;12.20;99.90
18147;DHT22;9199;48.832;9.182;2023-04-01T16:01:16;12.10;99.90
18147;DHT22;9199;48.832;9.182;2023-04-01T16:03:55;12.10;99.90
18147;DHT22;9199;48.832;9.182;2023-04-01T16:06:47;12.10;99.90
18147;DHT22;9199;48.832;9.182;2023-04-01T16:09:36;12.00;99.90
18147;DHT22;9199;48.832;9.182;2023-04-01T16:12:15;11.90;99.90
18147;DHT22;9199;48.832;9.182;2023-04-01T16:14:52;11.80;99.90
18147;DHT22;9199;48.832;9.182;2023-04-01T16:17:49;11.80;99.90
18147;DHT22;9199;48.832;9.182;2023-04-01T16:20:25;11.80;99.90
18147;DHT22;9199;48.832;9.182;2023-04-01T16:22:56;11.80;99.90
18147;DHT22;9199;48.832;9.182;2023-04-01T16:25:32;11.70;99.90
18147;DHT22;9199;48.832;9.182;2023-04-01T16:28:16;11.60;99.90
18147;DHT22;9199;48.832;9.182;2023-04-01T16:30:48;11.70;99.90
18147;DHT22;9199;48.832;9.182;2023-04-01T16:33:23;11.60;99.90
18147;DHT22;9199;48.832;9.182;2023-04-01T16:35:56;11.60;99.90
18147;DHT22;9199;48.832;9.182;2023-04-01T16:38:26;11.60;99.90
18147;DHT22;9199;48.832;9.182;2023-04-01T16:41:14;11.60;99.90
18147;DHT22;9199;48.832;9.182;2023-04-01T16:43:44;11.60;99.90
18147;DHT22;9199;48.832;9.182;2023-04-01T16:46:21;11.50;99.90
18147;DHT22;9199;48.832;9.182;2023-04-01T16:48:59;11.50;99.90
18147;DHT22;9199;48.832;9.182;2023-04-01T16:51:34;11.50;99.90
18147;DHT22;9199;48.832;9.182;2023-04-01T16:54:05;11.50;99.90
18147;DHT22;9199;48.832;9.182;2023-04-01T16:56:39;11.60;99.90
18147;DHT22;9199;48.832;9.182;2023-04-01T16:59:15;11.50;99.90
18147;DHT22;9199;48.832;9.182;2023-04-01T17:01:49;11.50;99.90
18147;DHT22;9199;48.832;9.182;2023-04-01T17:04:25;11.50;99.90
18147;DHT22;9199;48.832;9.182;2023-04-01T17:07:01;11.50;99.90
18147;DHT22;9199;48.832;9.182;2023-04-01T17:09:50;11.50;99.90
18147;DHT22;9199;48.832;9.182;2023-04-01T17:12:24;11.50;99.90
18147;DHT22;9199;48.832;9.182;2023-04-01T17:14:58;11.50;99.90
18147;DHT22;9199;48.832;9.182;2023-04-01T17:17:34;11.40;99.90
18147;DHT22;9199;48.832;9.182;2023-04-01T17:20:14;11.50;99.90
18147;DHT22;9199;48.832;9.182;2023-04-01T17:22:52;11.40;99.90
18147;DHT22;9199;48.832;9.182;2023-04-01T17:25:33;11.50;99.90
18147;DHT22;9199;48.832;9.182;2023-04-01T17:28:09;11.40;99.90
18147;DHT22;9199;48.832;9.182;2023-04-01T17:30:39;11.40;99.90
18147;DHT22;9199;48.832;9.182;2023-04-01T17:33:27;11.30;99.90
18147;DHT22;9199;48.832;9.182;2023-04-01T17:35:59;11.40;99.90
18147;DHT22;9199;48.832;9.182;2023-04-01T17:38:47;11.30;99.90
18147;DHT22;9199;48.832;9.182;2023-04-01T17:41:28;11.30;99.90
18147;DHT22;9199;48.832;9.182;2023-04-01T17:44:04;11.30;99.90
18147;DHT22;9199;48.832;9.182;2023-04-01T17:46:50;11.30;99.90
18147;DHT22;9199;48.832;9.182;2023-04-01T17:49:28;11.30;99.90
18147;DHT22;9199;48.832;9.182;2023-04-01T17:52:00;11.30;99.90
18147;DHT22;9199;48.832;9.182;2023-04-01T17:54:38;11.30;99.90